Time;durP1;ratioP1;P1;durP2;ratioP2;P2;SDS_P1;SDS_P2;PMS_P1;PMS_P2;Temp;Humidity;BMP_temperature;BMP_pressure;BME280_temperature;BME280_humidity;BME280_pressure;Samples;Min_cycle;Max_cycle;Signal;HPM_P1;HPM_P2
2023/12/18 00:02:20;;;;;;;48.40;31.90;;;-1.30;99.90;;;;;;4955571;29;20204;-77
2023/12/18 00:04:47;;;;;;;44.13;29.50;;;-1.20;99.90;;;;;;4955527;29;20228;-77
2023/12/18 00:07:16;;;;;;;41.17;26.77;;;-1.30;99.90;;;;;;4955418;29;20269;-78
2023/12/18 00:09:42;;;;;;;45.60;29.13;;;-1.30;99.90;;;;;;4955174;29;20196;-77
2023/12/18 00:12:09;;;;;;;47.57;30.87;;;-1.40;99.90;;;;;;4954924;28;20224;-77
2023/12/18 00:14:37;;;;;;;43.90;28.17;;;-1.40;99.90;;;;;;4954889;29;20201;-76
2023/12/18 00:17:04;;;;;;;47.10;28.80;;;-1.40;99.90;;;;;;4955411;29;20232;-75
2023/12/18 00:19:31;;;;;;;45.43;28.30;;;-1.50;99.90;;;;;;4955218;29;20213;-76
2023/12/18 00:21:57;;;;;;;43.27;29.67;;;-1.50;99.90;;;;;;4955220;29;20201;-76
2023/12/18 00:24:25;;;;;;;46.13;29.43;;;-1.50;99.90;;;;;;4955194;29;20331;-76
2023/12/18 00:26:52;;;;;;;45.50;29.87;;;-1.50;99.90;;;;;;4954966;29;20253;-76
2023/12/18 00:29:18;;;;;;;47.00;28.80;;;-1.60;99.90;;;;;;4955777;29;20254;-77
2023/12/18 00:31:47;;;;;;;51.37;30.47;;;-1.60;99.90;;;;;;4957993;29;20225;-76
2023/12/18 00:34:14;;;;;;;47.13;30.40;;;-1.60;99.90;;;;;;4959736;29;20264;-76
2023/12/18 00:36:41;;;;;;;46.10;31.23;;;-1.60;99.90;;;;;;4955837;29;20283;-76
2023/12/18 00:39:07;;;;;;;44.20;30.13;;;-1.60;99.90;;;;;;4955182;29;20205;-77
2023/12/18 00:41:34;;;;;;;42.53;28.57;;;-1.50;99.90;;;;;;4955039;28;20622;-76
2023/12/18 00:44:01;;;;;;;48.77;31.43;;;-1.60;99.90;;;;;;4955584;29;20201;-76
2023/12/18 00:46:28;;;;;;;49.13;30.87;;;-1.50;99.90;;;;;;4956147;29;20197;-76
2023/12/18 00:48:54;;;;;;;52.50;31.60;;;-1.50;99.90;;;;;;4954771;29;20661;-77
2023/12/18 00:51:21;;;;;;;50.57;31.93;;;-1.50;99.90;;;;;;4954522;29;20241;-77
2023/12/18 00:53:48;;;;;;;51.63;31.43;;;-1.60;99.90;;;;;;4954671;29;20197;-76
2023/12/18 00:56:14;;;;;;;49.17;30.87;;;-1.60;99.90;;;;;;4954678;29;20271;-76
2023/12/18 00:58:42;;;;;;;53.33;31.70;;;-1.60;99.90;;;;;;4954852;29;20209;-77
2023/12/18 01:01:09;;;;;;;56.70;34.30;;;-1.60;99.90;;;;;;4954719;29;20205;-77
2023/12/18 01:03:37;;;;;;;52.70;32.63;;;-1.70;99.90;;;;;;4954740;29;20201;-76
2023/12/18 01:06:05;;;;;;;54.87;33.50;;;-1.70;99.90;;;;;;4954665;29;20224;-77
2023/12/18 01:08:31;;;;;;;53.67;34.27;;;-1.70;99.90;;;;;;4954586;29;20209;-76
2023/12/18 01:10:58;;;;;;;55.33;33.93;;;-1.60;99.90;;;;;;4954894;29;20200;-77
2023/12/18 01:13:24;;;;;;;51.07;31.27;;;-1.50;99.90;;;;;;4954610;29;20233;-76
2023/12/18 01:15:53;;;;;;;48.33;30.93;;;-1.60;99.90;;;;;;4954435;29;20543;-77
2023/12/18 01:18:19;;;;;;;47.93;30.50;;;-1.50;99.90;;;;;;4954646;29;20212;-77
2023/12/18 01:23:30;;;;;;;46.00;30.03;;;-1.70;99.90;;;;;;4954645;29;20208;-77
2023/12/18 01:25:57;;;;;;;47.13;30.37;;;-1.70;99.90;;;;;;4957223;28;20680;-76
2023/12/18 01:28:23;;;;;;;46.07;29.70;;;-1.70;99.90;;;;;;4959103;29;20201;-77
2023/12/18 01:30:51;;;;;;;49.23;31.13;;;-1.70;99.90;;;;;;4959819;29;20201;-76
2023/12/18 01:33:18;;;;;;;51.37;32.30;;;-1.70;99.90;;;;;;4959372;29;20225;-76
2023/12/18 01:35:45;;;;;;;45.10;28.83;;;-1.80;99.90;;;;;;4958153;29;20229;-76
2023/12/18 01:38:12;;;;;;;47.00;29.17;;;-1.80;99.90;;;;;;4968457;29;20226;-76
2023/12/18 01:40:38;;;;;;;41.53;27.33;;;-1.80;99.90;;;;;;4976812;29;20205;-76
2023/12/18 01:43:23;;;;;;;40.37;27.73;;;-1.90;99.90;;;;;;4976187;29;20233;-76
2023/12/18 01:45:55;;;;;;;42.40;27.53;;;-1.90;99.90;;;;;;4976519;29;20212;-75
2023/12/18 01:48:23;;;;;;;43.30;26.87;;;-1.90;99.90;;;;;;4967834;29;20265;-76
2023/12/18 01:50:50;;;;;;;41.63;27.33;;;-1.90;99.90;;;;;;4958205;29;20217;-76
2023/12/18 01:53:17;;;;;;;41.70;28.87;;;-1.90;99.90;;;;;;4958147;29;20225;-76
2023/12/18 01:55:44;;;;;;;46.03;29.70;;;-1.80;99.90;;;;;;4958539;29;20231;-76
2023/12/18 01:58:14;;;;;;;46.77;29.10;;;-1.70;99.90;;;;;;4958733;29;20204;-76
2023/12/18 02:00:42;;;;;;;44.70;28.73;;;-1.80;99.90;;;;;;4958541;29;20197;-75
2023/12/18 02:03:10;;;;;;;48.53;29.67;;;-1.80;99.90;;;;;;4958664;29;20538;-77
2023/12/18 02:05:40;;;;;;;44.30;29.97;;;-1.70;99.90;;;;;;4957600;29;20208;-77
2023/12/18 02:08:07;;;;;;;51.37;30.80;;;-1.70;99.90;;;;;;4957837;29;20205;-76
2023/12/18 02:10:35;;;;;;;51.50;32.53;;;-1.70;99.90;;;;;;4957396;29;20213;-75
2023/12/18 02:13:01;;;;;;;56.73;33.87;;;-1.70;99.90;;;;;;4958959;29;20228;-76
2023/12/18 02:15:28;;;;;;;56.23;31.90;;;-1.80;99.90;;;;;;4957750;29;20201;-76
2023/12/18 02:17:54;;;;;;;49.77;31.33;;;-1.90;99.90;;;;;;4957557;29;20201;-76
2023/12/18 02:20:21;;;;;;;45.10;29.40;;;-1.90;99.90;;;;;;4957234;29;20201;-75
2023/12/18 02:22:52;;;;;;;46.70;29.57;;;-1.90;99.90;;;;;;4957367;29;20212;-76
2023/12/18 02:25:20;;;;;;;45.53;28.70;;;-1.90;99.90;;;;;;4957481;29;20544;-76
2023/12/18 02:27:48;;;;;;;47.10;29.73;;;-1.90;99.90;;;;;;4956927;29;20605;-77
2023/12/18 02:30:16;;;;;;;44.87;28.73;;;-1.80;99.90;;;;;;4957234;29;20197;-76
2023/12/18 02:32:43;;;;;;;43.70;28.63;;;-1.80;99.90;;;;;;4956774;29;20319;-76
2023/12/18 02:35:10;;;;;;;45.03;29.27;;;-1.90;99.90;;;;;;4956947;29;20233;-77
2023/12/18 02:37:36;;;;;;;53.07;30.37;;;-1.80;99.90;;;;;;4955775;28;20197;-77
2023/12/18 02:40:05;;;;;;;48.33;29.90;;;-1.80;99.90;;;;;;4956825;29;20201;-77
2023/12/18 02:42:32;;;;;;;52.07;31.50;;;-1.80;99.90;;;;;;4956702;29;20241;-77
2023/12/18 02:44:58;;;;;;;50.70;30.80;;;-1.80;99.90;;;;;;4957203;29;20205;-78
2023/12/18 02:47:25;;;;;;;54.20;32.07;;;-1.90;99.90;;;;;;4956750;29;20209;-77
2023/12/18 02:49:52;;;;;;;48.47;30.17;;;-2.00;99.90;;;;;;4957110;29;20209;-77
2023/12/18 02:52:19;;;;;;;53.17;31.07;;;-2.00;99.90;;;;;;4960409;29;20261;-76
2023/12/18 02:54:46;;;;;;;44.23;28.87;;;-2.00;99.90;;;;;;4956516;29;20204;-76
2023/12/18 02:57:14;;;;;;;46.53;28.33;;;-2.00;99.90;;;;;;4956462;29;20208;-76
2023/12/18 02:59:40;;;;;;;42.07;27.80;;;-1.90;99.90;;;;;;4956844;29;20212;-76
2023/12/18 03:02:07;;;;;;;39.70;27.93;;;-2.00;99.90;;;;;;4956470;29;20201;-76
2023/12/18 03:04:33;;;;;;;45.77;28.27;;;-1.90;99.90;;;;;;4956352;29;20252;-76
2023/12/18 03:07:00;;;;;;;43.33;27.10;;;-1.90;99.90;;;;;;4956331;29;20625;-76
2023/12/18 03:09:27;;;;;;;47.90;29.30;;;-2.00;99.90;;;;;;4956154;29;20256;-76
2023/12/18 03:11:53;;;;;;;43.77;28.07;;;-2.00;99.90;;;;;;4956444;29;20197;-76
2023/12/18 03:14:21;;;;;;;43.17;27.50;;;-2.00;99.90;;;;;;4956339;29;20220;-76
2023/12/18 03:16:48;;;;;;;47.20;29.03;;;-2.00;99.90;;;;;;4956281;29;20257;-76
2023/12/18 03:19:15;;;;;;;45.30;28.73;;;-2.00;99.90;;;;;;4956167;29;20212;-75
2023/12/18 03:21:42;;;;;;;43.50;27.10;;;-2.00;99.90;;;;;;4956286;29;20212;-75
2023/12/18 03:24:09;;;;;;;40.90;26.37;;;-2.00;99.90;;;;;;4955625;29;20264;-75
2023/12/18 03:26:35;;;;;;;39.30;26.40;;;-2.00;99.90;;;;;;4955968;29;20661;-75
2023/12/18 03:29:02;;;;;;;44.43;28.07;;;-2.10;99.90;;;;;;4956216;29;20205;-76
2023/12/18 03:31:30;;;;;;;39.97;27.00;;;-2.00;99.90;;;;;;4955860;29;20599;-76
2023/12/18 03:33:56;;;;;;;42.87;28.33;;;-2.10;99.90;;;;;;4956068;29;20229;-76
2023/12/18 03:36:23;;;;;;;40.90;27.23;;;-2.10;99.90;;;;;;4955774;29;20261;-76
2023/12/18 03:38:50;;;;;;;44.07;27.30;;;-2.00;99.90;;;;;;4955730;29;20295;-76
2023/12/18 03:41:17;;;;;;;45.00;27.97;;;-2.00;99.90;;;;;;4955618;28;20241;-77
2023/12/18 03:43:43;;;;;;;45.27;28.73;;;-2.00;99.90;;;;;;4955544;29;20724;-76
2023/12/18 03:46:10;;;;;;;46.67;29.17;;;-2.00;99.90;;;;;;4955534;29;20265;-76
2023/12/18 03:48:38;;;;;;;46.20;29.33;;;-1.90;99.90;;;;;;4955265;28;20649;-76
2023/12/18 03:51:05;;;;;;;43.43;28.57;;;-1.80;99.90;;;;;;4955669;29;20201;-76
2023/12/18 03:53:32;;;;;;;42.13;27.33;;;-1.90;99.90;;;;;;4955665;29;20316;-76
2023/12/18 03:55:58;;;;;;;41.50;27.47;;;-2.00;99.90;;;;;;4955441;29;20201;-77
2023/12/18 03:58:25;;;;;;;38.87;26.47;;;-1.90;99.90;;;;;;4955497;29;20205;-77
2023/12/18 04:00:51;;;;;;;39.17;25.47;;;-1.90;99.90;;;;;;4955614;29;20728;-76
2023/12/18 04:03:18;;;;;;;42.07;27.23;;;-2.00;99.90;;;;;;4955517;29;20233;-76
2023/12/18 04:05:46;;;;;;;43.53;26.73;;;-2.00;99.90;;;;;;4955300;29;20204;-76
2023/12/18 04:08:13;;;;;;;42.97;27.77;;;-2.00;99.90;;;;;;4959315;29;20226;-76
2023/12/18 04:10:39;;;;;;;44.67;27.80;;;-2.00;99.90;;;;;;4960424;29;20258;-76
2023/12/18 04:13:06;;;;;;;42.33;27.50;;;-2.00;99.90;;;;;;4956217;29;20232;-76
2023/12/18 04:15:32;;;;;;;44.63;27.33;;;-1.90;99.90;;;;;;4954968;29;20209;-76
2023/12/18 04:17:59;;;;;;;43.00;26.80;;;-2.00;99.90;;;;;;4955220;29;20291;-76
2023/12/18 04:20:26;;;;;;;42.23;26.97;;;-2.00;99.90;;;;;;4954762;29;20213;-77
2023/12/18 04:22:54;;;;;;;42.37;27.40;;;-2.00;99.90;;;;;;4955134;29;20205;-77
2023/12/18 04:25:20;;;;;;;38.67;26.60;;;-1.90;99.90;;;;;;4954966;29;20253;-77
2023/12/18 04:27:47;;;;;;;38.83;26.53;;;-1.90;99.90;;;;;;4955032;29;20201;-76
2023/12/18 04:30:14;;;;;;;37.50;25.93;;;-2.00;99.90;;;;;;4954960;29;20272;-76
2023/12/18 04:32:41;;;;;;;39.47;26.03;;;-2.00;99.90;;;;;;4954906;29;20553;-76
2023/12/18 04:35:07;;;;;;;37.63;26.23;;;-2.10;99.90;;;;;;4954801;29;20535;-76
2023/12/18 04:37:34;;;;;;;41.20;26.77;;;-2.20;99.90;;;;;;4955075;29;20257;-77
2023/12/18 04:40:03;;;;;;;40.63;26.10;;;-2.10;99.90;;;;;;4954836;29;20208;-76
2023/12/18 04:42:30;;;;;;;52.87;27.57;;;-2.20;99.90;;;;;;4954677;29;20324;-76
2023/12/18 04:44:58;;;;;;;50.23;28.03;;;-2.20;99.90;;;;;;4954553;29;20650;-77
2023/12/18 04:47:25;;;;;;;45.53;26.03;;;-2.20;99.90;;;;;;4954573;29;20201;-77
2023/12/18 04:49:51;;;;;;;45.93;28.37;;;-2.30;99.90;;;;;;4954833;29;20201;-76
2023/12/18 04:52:18;;;;;;;45.90;28.40;;;-2.30;99.90;;;;;;4954757;29;20197;-76
2023/12/18 04:54:45;;;;;;;39.10;25.87;;;-2.30;99.90;;;;;;4954495;29;20586;-77
2023/12/18 04:57:13;;;;;;;43.90;27.93;;;-2.30;99.90;;;;;;4954521;29;20204;-78
2023/12/18 04:59:40;;;;;;;40.47;26.57;;;-2.10;99.90;;;;;;4955488;28;20200;-77
2023/12/18 05:02:06;;;;;;;40.37;25.77;;;-2.20;99.90;;;;;;4958501;29;20209;-76
2023/12/18 05:04:33;;;;;;;41.10;26.50;;;-2.20;99.90;;;;;;4958593;29;20699;-76
2023/12/18 05:07:00;;;;;;;41.87;26.23;;;-2.20;99.90;;;;;;4958534;29;20205;-76
2023/12/18 05:09:27;;;;;;;36.23;24.97;;;-2.20;99.90;;;;;;4958425;29;20200;-76
2023/12/18 05:11:53;;;;;;;38.90;24.70;;;-2.10;99.90;;;;;;4958348;29;20553;-76
2023/12/18 05:14:21;;;;;;;38.07;25.47;;;-2.00;99.90;;;;;;4958299;29;20233;-76
2023/12/18 05:16:48;;;;;;;39.73;25.63;;;-1.90;99.90;;;;;;4958178;29;20292;-76
2023/12/18 05:19:14;;;;;;;44.93;27.10;;;-1.80;99.90;;;;;;4958459;29;20224;-76
2023/12/18 05:21:41;;;;;;;46.77;27.07;;;-1.90;99.90;;;;;;4958099;29;20601;-76
2023/12/18 05:24:08;;;;;;;44.80;26.53;;;-2.00;99.90;;;;;;4958188;29;20253;-76
2023/12/18 05:26:34;;;;;;;42.60;26.90;;;-2.00;99.90;;;;;;4957987;29;20197;-76
2023/12/18 05:29:01;;;;;;;43.00;26.27;;;-2.10;99.90;;;;;;4957991;29;20339;-77
2023/12/18 05:31:29;;;;;;;42.30;28.07;;;-2.10;99.90;;;;;;4958414;29;20256;-76
2023/12/18 05:33:56;;;;;;;40.90;26.50;;;-2.10;99.90;;;;;;4958122;29;20633;-77
2023/12/18 05:36:22;;;;;;;43.33;27.90;;;-2.20;99.90;;;;;;4958050;29;20208;-77
2023/12/18 05:38:49;;;;;;;40.17;28.60;;;-2.20;99.90;;;;;;4957885;29;20197;-77
2023/12/18 05:41:15;;;;;;;44.13;28.50;;;-2.20;99.90;;;;;;4957654;29;20241;-76
2023/12/18 05:43:42;;;;;;;43.33;29.63;;;-2.30;99.90;;;;;;4957846;29;20212;-77
2023/12/18 05:46:11;;;;;;;42.07;26.53;;;-2.20;99.90;;;;;;4958012;29;20208;-76
2023/12/18 05:48:39;;;;;;;40.07;26.03;;;-2.30;99.90;;;;;;4958025;29;20211;-76
2023/12/18 05:51:05;;;;;;;40.80;27.23;;;-2.30;99.90;;;;;;4957570;29;20201;-77
2023/12/18 05:53:32;;;;;;;40.57;25.77;;;-2.20;99.90;;;;;;4957576;29;20228;-76
2023/12/18 05:55:59;;;;;;;40.73;27.27;;;-2.20;99.90;;;;;;4957682;29;20249;-77
2023/12/18 05:58:25;;;;;;;43.10;27.97;;;-2.10;99.90;;;;;;4957595;29;20542;-77
2023/12/18 06:00:52;;;;;;;40.00;26.03;;;-2.20;99.90;;;;;;4957615;29;20205;-77
2023/12/18 06:03:18;;;;;;;43.93;27.47;;;-2.20;99.90;;;;;;4957579;29;20610;-76
2023/12/18 06:05:46;;;;;;;45.57;28.33;;;-2.20;99.90;;;;;;4957471;29;20201;-76
2023/12/18 06:08:13;;;;;;;44.27;27.97;;;-2.30;99.90;;;;;;4957390;29;20209;-77
2023/12/18 06:10:40;;;;;;;39.40;27.17;;;-2.30;99.90;;;;;;4957169;28;20201;-76
2023/12/18 06:13:06;;;;;;;43.70;28.80;;;-2.40;99.90;;;;;;4957395;29;20205;-77
2023/12/18 06:15:33;;;;;;;42.63;28.23;;;-2.40;99.90;;;;;;4957460;29;20249;-76
2023/12/18 06:17:59;;;;;;;42.00;27.20;;;-2.40;99.90;;;;;;4956952;29;20690;-76
2023/12/18 06:20:26;;;;;;;48.50;27.67;;;-2.40;99.90;;;;;;4957094;29;20205;-76
2023/12/18 06:22:54;;;;;;;46.00;30.20;;;-2.40;99.90;;;;;;4957178;29;20727;-76
2023/12/18 06:25:20;;;;;;;68.67;37.60;;;-2.40;99.90;;;;;;4957053;29;20208;-76
2023/12/18 06:27:47;;;;;;;63.30;35.43;;;-2.30;99.90;;;;;;4957197;29;20197;-76
2023/12/18 06:30:15;;;;;;;60.50;32.23;;;-2.40;99.90;;;;;;4957728;29;20261;-77
2023/12/18 06:32:42;;;;;;;59.77;31.40;;;-2.40;99.90;;;;;;4957525;29;20231;-76
2023/12/18 06:35:09;;;;;;;55.23;30.63;;;-2.40;99.90;;;;;;4957220;29;20617;-77
2023/12/18 06:37:35;;;;;;;49.10;28.30;;;-2.40;99.90;;;;;;4957060;29;20200;-77
2023/12/18 06:40:04;;;;;;;42.33;26.87;;;-2.40;99.90;;;;;;4956749;29;20201;-77
2023/12/18 06:42:31;;;;;;;42.97;26.87;;;-2.40;99.90;;;;;;4956698;29;20233;-76
2023/12/18 06:44:58;;;;;;;46.83;28.00;;;-2.40;99.90;;;;;;4956907;29;20299;-77
2023/12/18 06:47:24;;;;;;;42.53;26.57;;;-2.30;99.90;;;;;;4956840;29;20217;-77
2023/12/18 06:49:51;;;;;;;43.07;28.30;;;-2.10;99.90;;;;;;4956578;29;20260;-76
2023/12/18 06:52:18;;;;;;;36.70;25.97;;;-1.90;99.90;;;;;;4956541;29;20238;-77
2023/12/18 06:54:44;;;;;;;44.53;28.67;;;-1.70;99.90;;;;;;4956239;29;20288;-77
2023/12/18 06:57:12;;;;;;;44.50;28.07;;;-1.80;99.90;;;;;;4956483;29;20261;-77
2023/12/18 06:59:39;;;;;;;43.13;28.57;;;-1.90;99.90;;;;;;4956514;29;20205;-77
2023/12/18 07:02:06;;;;;;;44.70;27.20;;;-2.00;99.90;;;;;;4956545;29;20578;-77
2023/12/18 07:04:33;;;;;;;45.53;29.57;;;-2.00;99.90;;;;;;4956425;29;20237;-76
2023/12/18 07:06:59;;;;;;;43.70;26.87;;;-2.10;99.90;;;;;;4956307;29;20204;-77
2023/12/18 07:09:26;;;;;;;44.53;27.43;;;-2.10;99.90;;;;;;4956651;29;20200;-76
2023/12/18 07:11:52;;;;;;;43.87;28.53;;;-2.00;99.90;;;;;;4956562;29;20280;-76
2023/12/18 07:14:20;;;;;;;44.97;29.00;;;-2.10;99.90;;;;;;4956274;29;20221;-78
2023/12/18 07:16:47;;;;;;;43.23;27.50;;;-2.00;99.90;;;;;;4956482;29;20205;-76
2023/12/18 07:19:16;;;;;;;41.53;27.50;;;-2.10;99.90;;;;;;4956130;29;20260;-77
2023/12/18 07:21:43;;;;;;;41.63;26.30;;;-2.10;99.90;;;;;;4956017;28;20215;-76
2023/12/18 07:24:10;;;;;;;44.03;26.97;;;-2.10;99.90;;;;;;4955641;29;20257;-77
2023/12/18 07:26:36;;;;;;;43.03;27.77;;;-2.10;99.90;;;;;;4955977;29;20205;-76
2023/12/18 07:29:03;;;;;;;41.57;28.40;;;-2.00;99.90;;;;;;4956015;29;20313;-77
2023/12/18 07:31:31;;;;;;;39.83;26.20;;;-2.00;99.90;;;;;;4955752;29;20201;-77
2023/12/18 07:33:58;;;;;;;43.87;27.87;;;-2.00;99.90;;;;;;4955793;29;20281;-77
2023/12/18 07:36:24;;;;;;;41.73;28.13;;;-1.90;99.90;;;;;;4955787;29;20877;-77
2023/12/18 07:38:51;;;;;;;45.53;27.57;;;-1.80;99.90;;;;;;4955979;29;20208;-77
2023/12/18 07:41:18;;;;;;;46.70;29.50;;;-1.70;99.90;;;;;;4955661;29;20241;-77
2023/12/18 07:43:45;;;;;;;45.80;29.60;;;-1.70;99.90;;;;;;4963994;29;20251;-77
2023/12/18 07:46:18;;;;;;;48.37;29.97;;;-1.50;99.90;;;;;;4956790;29;20252;-77
2023/12/18 07:48:48;;;;;;;45.83;30.07;;;-1.40;99.90;;;;;;4956199;29;20244;-77
2023/12/18 07:51:15;;;;;;;50.20;31.13;;;-1.30;99.90;;;;;;4955884;29;20212;-78
2023/12/18 07:53:41;;;;;;;46.73;32.00;;;-1.20;99.90;;;;;;4955371;29;20248;-78
2023/12/18 07:56:08;;;;;;;47.40;30.53;;;-1.00;99.90;;;;;;4955406;29;20332;-77
2023/12/18 07:58:35;;;;;;;40.93;28.47;;;-0.90;99.90;;;;;;4955372;29;20219;-78
2023/12/18 08:01:03;;;;;;;45.93;29.07;;;-0.90;99.90;;;;;;4955226;29;20197;-78
2023/12/18 08:03:30;;;;;;;48.97;31.53;;;-0.80;99.90;;;;;;4955646;29;20209;-77
2023/12/18 08:05:58;;;;;;;48.63;30.80;;;-0.70;99.90;;;;;;4955525;29;20205;-77
2023/12/18 08:08:25;;;;;;;47.83;30.27;;;-0.60;99.90;;;;;;4955458;29;20264;-76
2023/12/18 08:10:51;;;;;;;50.33;32.23;;;-0.60;99.90;;;;;;4955107;29;20204;-78
2023/12/18 08:13:18;;;;;;;48.43;32.73;;;-0.40;99.90;;;;;;4954793;29;20201;-77
2023/12/18 08:15:44;;;;;;;48.63;32.27;;;-0.30;99.90;;;;;;4954889;29;20293;-77
2023/12/18 08:18:12;;;;;;;51.60;32.60;;;-0.20;99.90;;;;;;4955055;29;20201;-77
2023/12/18 08:20:39;;;;;;;47.90;33.23;;;-0.10;99.90;;;;;;4955031;29;20201;-78
2023/12/18 08:23:07;;;;;;;50.03;31.97;;;0.20;99.90;;;;;;4955192;29;20260;-78
2023/12/18 08:25:34;;;;;;;51.57;32.70;;;0.40;99.90;;;;;;4955227;29;20296;-77
2023/12/18 08:28:00;;;;;;;45.17;30.67;;;0.50;99.90;;;;;;4955175;29;20205;-78
2023/12/18 08:30:27;;;;;;;48.97;31.90;;;0.50;99.90;;;;;;4954967;29;20280;-77
2023/12/18 08:32:54;;;;;;;49.37;31.77;;;0.60;99.90;;;;;;4955236;29;20201;-78
2023/12/18 08:35:20;;;;;;;48.23;32.37;;;0.70;99.90;;;;;;4954004;28;20228;-78
2023/12/18 08:37:47;;;;;;;46.23;32.87;;;0.80;99.90;;;;;;4954883;29;20232;-79
2023/12/18 08:40:15;;;;;;;50.67;34.20;;;0.90;99.90;;;;;;4954913;29;20210;-79
2023/12/18 08:42:41;;;;;;;50.27;35.67;;;1.00;99.90;;;;;;4954830;29;20237;-80
2023/12/18 08:45:09;;;;;;;55.93;37.80;;;1.10;99.90;;;;;;4954759;29;20294;-80
2023/12/18 08:47:36;;;;;;;52.83;35.63;;;1.20;99.90;;;;;;4954858;29;20205;-80
2023/12/18 08:50:02;;;;;;;49.73;33.60;;;1.40;99.90;;;;;;4954890;29;20581;-82
2023/12/18 08:52:29;;;;;;;43.30;32.00;;;1.70;99.90;;;;;;4954723;29;20216;-80
2023/12/18 08:54:55;;;;;;;32.67;25.27;;;1.90;99.90;;;;;;4954650;29;20236;-80
2023/12/18 08:57:23;;;;;;;29.47;22.77;;;2.10;99.90;;;;;;4954790;29;20203;-80
2023/12/18 08:59:51;;;;;;;25.60;20.60;;;2.30;99.90;;;;;;4954924;29;20204;-80
2023/12/18 09:02:18;;;;;;;20.00;16.47;;;2.40;99.90;;;;;;4954817;29;20208;-79
2023/12/18 09:04:45;;;;;;;19.57;14.87;;;2.60;99.90;;;;;;4954785;29;20204;-81
2023/12/18 09:07:11;;;;;;;15.87;12.80;;;2.60;99.90;;;;;;4954866;29;20685;-78
2023/12/18 09:09:39;;;;;;;17.00;13.60;;;2.80;99.90;;;;;;4954698;29;20205;-77
2023/12/18 09:12:06;;;;;;;15.30;12.03;;;2.90;99.90;;;;;;4954609;29;20209;-78
2023/12/18 09:14:34;;;;;;;15.90;11.90;;;3.00;99.90;;;;;;4954900;29;20228;-78
2023/12/18 09:17:01;;;;;;;14.37;11.17;;;3.10;99.90;;;;;;4954731;29;20205;-77
2023/12/18 09:19:29;;;;;;;13.40;10.83;;;3.20;99.90;;;;;;4937128;29;20206;-78
2023/12/18 09:21:56;;;;;;;13.50;11.27;;;3.40;99.90;;;;;;4954643;29;20576;-78
2023/12/18 09:24:23;;;;;;;14.47;11.07;;;3.60;99.90;;;;;;4954269;29;20201;-77
2023/12/18 09:26:49;;;;;;;14.93;11.03;;;3.70;99.90;;;;;;4954335;29;20669;-77
2023/12/18 09:29:16;;;;;;;12.77;11.00;;;3.80;99.90;;;;;;4954470;29;20264;-78
2023/12/18 09:31:44;;;;;;;13.10;11.80;;;4.00;99.90;;;;;;4954560;29;20204;-78
2023/12/18 09:34:10;;;;;;;13.00;11.27;;;4.20;99.90;;;;;;4954228;29;20213;-78
2023/12/18 09:36:37;;;;;;;12.60;11.30;;;4.50;99.90;;;;;;4954317;29;20204;-78
2023/12/18 09:39:04;;;;;;;14.25;11.05;;;4.80;99.90;;;;;;4954214;29;20197;-79
2023/12/18 09:41:31;;;;;;;15.57;12.90;;;5.00;99.90;;;;;;4954087;29;20232;-79
2023/12/18 09:43:58;;;;;;;19.38;13.88;;;5.30;99.90;;;;;;4954378;29;20201;-79
2023/12/18 09:46:25;;;;;;;21.23;15.40;;;5.60;99.90;;;;;;4955912;28;20252;-79
2023/12/18 09:48:54;;;;;;;16.63;13.63;;;5.80;99.90;;;;;;4957754;29;20668;-80
2023/12/18 09:51:23;;;;;;;14.05;11.80;;;6.00;99.90;;;;;;4957680;29;20201;-80
2023/12/18 09:53:51;;;;;;;14.80;12.57;;;6.20;99.90;;;;;;4957525;29;20257;-79
2023/12/18 09:56:20;;;;;;;12.70;11.30;;;6.30;99.90;;;;;;4957769;29;20240;-78
2023/12/18 09:58:47;;;;;;;12.93;11.52;;;6.50;99.90;;;;;;4957872;29;20261;-79
2023/12/18 10:01:14;;;;;;;11.95;10.75;;;6.80;99.90;;;;;;4957677;29;20237;-79
2023/12/18 10:03:41;;;;;;;12.25;10.98;;;6.90;99.90;;;;;;4957675;29;20248;-80
2023/12/18 10:06:09;;;;;;;11.70;10.48;;;7.30;99.90;;;;;;4957488;29;20236;-79
2023/12/18 10:08:36;;;;;;;11.23;9.93;;;7.60;99.90;;;;;;4957346;29;20236;-79
2023/12/18 10:11:04;;;;;;;11.40;10.20;;;7.80;99.90;;;;;;4957307;29;20197;-79
2023/12/18 10:13:30;;;;;;;11.23;9.75;;;7.90;99.90;;;;;;4957398;29;20228;-79
2023/12/18 10:15:58;;;;;;;12.40;11.15;;;8.20;99.90;;;;;;4957246;29;20248;-78
2023/12/18 10:18:25;;;;;;;11.52;10.43;;;8.70;99.90;;;;;;4957352;29;20291;-79
2023/12/18 10:20:52;;;;;;;10.57;9.50;;;9.30;99.90;;;;;;4957209;29;20209;-79
2023/12/18 10:23:20;;;;;;;11.02;9.77;;;9.90;99.90;;;;;;4957213;29;20205;-79
2023/12/18 10:25:48;;;;;;;10.05;9.05;;;10.90;99.90;;;;;;4957205;29;20208;-79
2023/12/18 10:28:15;;;;;;;9.18;8.35;;;11.90;99.90;;;;;;4957355;29;20201;-79
2023/12/18 10:30:41;;;;;;;10.43;9.30;;;12.10;99.90;;;;;;4957060;29;20657;-79
2023/12/18 10:33:09;;;;;;;9.48;8.57;;;12.70;99.90;;;;;;4956980;29;20348;-79
2023/12/18 10:35:36;;;;;;;9.35;8.02;;;13.10;99.30;;;;;;4957055;29;20323;-79
2023/12/18 10:38:04;;;;;;;9.20;8.30;;;13.50;97.20;;;;;;4956910;29;20598;-79
2023/12/18 10:40:31;;;;;;;8.63;7.78;;;13.70;95.70;;;;;;4956861;29;20732;-79
2023/12/18 10:43:12;;;;;;;7.97;7.18;;;13.60;95.00;;;;;;4956639;29;20292;-80
2023/12/18 10:45:39;;;;;;;8.63;7.40;;;14.10;92.60;;;;;;4956824;29;20720;-79
2023/12/18 10:48:08;;;;;;;8.77;7.97;;;14.70;91.50;;;;;;4957273;29;20205;-79
2023/12/18 10:50:36;;;;;;;8.25;7.45;;;14.80;90.10;;;;;;4957052;29;20291;-79
2023/12/18 10:53:05;;;;;;;8.13;7.32;;;14.20;87.70;;;;;;4957282;29;20201;-79
2023/12/18 10:55:35;;;;;;;7.68;6.47;;;14.70;87.20;;;;;;4957075;29;20311;-78
2023/12/18 10:58:05;;;;;;;7.95;7.13;;;14.30;86.50;;;;;;4957786;28;20201;-78
2023/12/18 11:00:33;;;;;;;7.35;6.65;;;15.20;86.90;;;;;;4958073;29;20201;-78
2023/12/18 11:03:02;;;;;;;8.00;7.30;;;16.60;81.70;;;;;;4957116;29;20204;-79
2023/12/18 11:05:30;;;;;;;7.57;6.88;;;16.70;78.90;;;;;;4956614;29;20272;-79
2023/12/18 11:07:57;;;;;;;7.40;6.68;;;16.70;75.50;;;;;;4956576;29;20204;-79
2023/12/18 11:10:25;;;;;;;8.07;7.07;;;17.70;73.40;;;;;;4956969;29;20207;-79
2023/12/18 11:12:57;;;;;;;6.55;6.00;;;18.30;71.20;;;;;;4956639;29;20612;-80
2023/12/18 11:15:35;;;;;;;7.10;6.50;;;18.10;66.30;;;;;;4956855;29;20273;-79
2023/12/18 11:18:15;;;;;;;8.48;6.70;;;18.20;63.60;;;;;;4956845;29;20201;-79
2023/12/18 11:20:43;;;;;;;6.70;6.10;;;18.40;62.40;;;;;;4957847;29;20236;-80
2023/12/18 11:23:11;;;;;;;7.07;6.38;;;17.60;60.30;;;;;;4957353;29;20205;-79
2023/12/18 11:25:42;;;;;;;7.10;6.40;;;18.00;61.10;;;;;;4956716;29;20201;-79
2023/12/18 11:28:10;;;;;;;7.53;6.82;;;17.50;59.70;;;;;;4956222;29;20197;-79
2023/12/18 11:30:42;;;;;;;7.25;6.63;;;17.80;60.60;;;;;;4956022;29;20207;-80
2023/12/18 11:33:10;;;;;;;7.55;6.43;;;18.70;60.40;;;;;;4956404;29;20569;-79
2023/12/18 11:35:39;;;;;;;7.65;6.68;;;18.80;59.00;;;;;;4956034;29;20235;-80
2023/12/18 11:38:08;;;;;;;7.75;6.80;;;17.90;57.00;;;;;;4956132;29;20265;-80
2023/12/18 11:40:39;;;;;;;6.53;6.03;;;19.40;58.60;;;;;;4956113;29;20209;-79
2023/12/18 11:43:07;;;;;;;6.45;5.90;;;19.80;55.70;;;;;;4955792;29;20237;-79
2023/12/18 11:45:38;;;;;;;8.55;6.88;;;18.70;55.70;;;;;;4956021;29;20217;-80
2023/12/18 11:48:06;;;;;;;6.97;6.28;;;18.20;56.80;;;;;;4955762;29;20261;-79
2023/12/18 11:50:35;;;;;;;8.02;6.88;;;17.80;54.20;;;;;;4947639;29;20216;-79
2023/12/18 11:53:02;;;;;;;7.15;6.55;;;18.20;55.40;;;;;;4955796;29;20205;-79
2023/12/18 11:55:52;;;;;;;6.38;5.00;;;18.00;56.70;;;;;;4955412;29;20260;-79
2023/12/18 11:58:20;;;;;;;7.03;6.32;;;19.00;51.20;;;;;;4955263;29;20205;-79
2023/12/18 12:00:48;;;;;;;7.10;5.10;;;19.60;51.50;;;;;;4955157;29;20201;-79
2023/12/18 12:03:14;;;;;;;7.30;5.47;;;20.00;49.70;;;;;;4955487;29;20558;-79
2023/12/18 12:05:43;;;;;;;5.07;4.13;;;20.40;47.90;;;;;;4955783;29;20256;-79
2023/12/18 12:08:10;;;;;;;6.55;5.60;;;19.40;45.60;;;;;;4955147;28;20744;-79
2023/12/18 12:10:42;;;;;;;5.50;4.05;;;19.30;46.60;;;;;;4955296;29;20300;-79
2023/12/18 12:13:16;;;;;;;7.43;5.60;;;18.30;47.00;;;;;;4955378;29;20197;-79
2023/12/18 12:15:50;;;;;;;10.13;6.55;;;19.00;48.30;;;;;;4955342;29;20633;-80
2023/12/18 12:18:18;;;;;;;6.03;5.43;;;20.40;48.60;;;;;;4955293;29;20201;-81
2023/12/18 12:20:45;;;;;;;6.30;5.70;;;21.30;45.80;;;;;;4955408;29;20204;-81
2023/12/18 12:23:12;;;;;;;5.28;4.78;;;21.20;45.50;;;;;;4955144;29;20280;-82
2023/12/18 12:25:39;;;;;;;6.05;5.45;;;20.70;45.20;;;;;;4955228;29;20602;-81
2023/12/18 12:28:07;;;;;;;6.25;5.65;;;20.20;46.30;;;;;;4955352;29;20209;-81
2023/12/18 12:30:34;;;;;;;5.68;5.07;;;20.80;45.40;;;;;;4955001;29;20201;-81
2023/12/18 12:33:02;;;;;;;6.40;5.05;;;20.60;43.90;;;;;;4954932;29;20201;-81
2023/12/18 12:35:31;;;;;;;6.88;5.20;;;21.50;43.20;;;;;;4954930;29;20229;-81
2023/12/18 12:37:58;;;;;;;5.15;4.65;;;21.60;42.50;;;;;;4954838;29;20293;-81